Time;durP1;ratioP1;P1;durP2;ratioP2;P2;SDS_P1;SDS_P2;PMS_P1;PMS_P2;Temp;Humidity;BMP_temperature;BMP_pressure;BME280_temperature;BME280_humidity;BME280_pressure;Samples;Min_cycle;Max_cycle;Signal;HPM_P1;HPM_P2
2022/01/18 00:02:25;;;;;;;42.47;40.47;;;;;;;3.39;100.00;100917.31;5013777;28;20072;-78
2022/01/18 00:04:52;;;;;;;42.00;40.00;;;;;;;3.16;100.00;100930.09;4999406;28;20116;-79
2022/01/18 00:07:20;;;;;;;43.28;41.25;;;;;;;4.35;100.00;100943.38;5007054;28;20065;-80
2022/01/18 00:09:48;;;;;;;43.05;41.05;;;;;;;3.49;100.00;100940.84;5001247;28;20049;-78
2022/01/18 00:12:32;;;;;;;43.55;41.55;;;;;;;3.34;100.00;100949.28;5003816;28;20132;-78
2022/01/18 00:15:18;;;;;;;42.50;40.40;;;;;;;3.10;100.00;100970.06;4990930;28;20057;-79
2022/01/18 00:17:54;;;;;;;41.58;39.58;;;;;;;3.30;100.00;100991.72;5005116;28;20061;-80
2022/01/18 00:20:31;;;;;;;44.50;41.88;;;;;;;2.70;100.00;101015.94;5006848;28;20092;-79
2022/01/18 00:22:59;;;;;;;40.55;38.58;;;;;;;2.49;100.00;101039.78;5006822;28;20060;-79
2022/01/18 00:25:25;;;;;;;42.28;40.17;;;;;;;3.38;100.00;101024.13;5001610;28;20121;-77
2022/01/18 00:27:52;;;;;;;41.92;39.92;;;;;;;2.72;100.00;101033.19;5005066;28;20128;-78
2022/01/18 00:30:39;;;;;;;43.28;41.17;;;;;;;2.79;100.00;101049.16;5003135;28;20120;-78
2022/01/18 00:33:16;;;;;;;43.28;40.50;;;;;;;3.92;100.00;101073.97;5011787;28;20061;-78
2022/01/18 00:35:44;;;;;;;40.90;38.80;;;;;;;3.17;100.00;101082.19;5004739;28;20050;-79
2022/01/18 00:38:17;;;;;;;41.97;39.88;;;;;;;2.52;100.00;101099.81;4994838;28;20066;-78
2022/01/18 00:40:44;;;;;;;40.97;38.85;;;;;;;2.31;100.00;101114.91;5003056;28;20070;-79
2022/01/18 00:43:11;;;;;;;44.20;41.97;;;;;;;2.66;100.00;101130.81;5005792;28;20046;-78
2022/01/18 00:45:38;;;;;;;45.03;42.72;;;;;;;2.62;100.00;101145.16;5004460;28;20054;-79
2022/01/18 00:48:05;;;;;;;41.00;39.10;;;;;;;2.08;100.00;101149.28;5000431;28;20478;-79
2022/01/18 00:50:33;;;;;;;40.05;38.15;;;;;;;3.72;100.00;101175.78;4995146;28;20061;-80
2022/01/18 00:52:59;;;;;;;43.63;41.28;;;;;;;2.13;100.00;101193.44;5002773;28;20078;-78
2022/01/18 00:55:34;;;;;;;40.70;38.63;;;;;;;2.60;100.00;101190.84;5004317;28;20041;-79
2022/01/18 00:58:00;;;;;;;43.15;41.05;;;;;;;1.79;100.00;101202.53;5000541;28;20057;-77
2022/01/18 01:00:27;;;;;;;46.20;44.05;;;;;;;2.73;100.00;101200.09;5004037;28;20438;-78
2022/01/18 01:02:54;;;;;;;44.65;42.45;;;;;;;1.91;100.00;101202.41;4999001;28;20057;-78
2022/01/18 01:05:21;;;;;;;41.92;39.83;;;;;;;2.42;100.00;101199.47;5002747;28;20047;-77
2022/01/18 01:07:47;;;;;;;44.75;42.65;;;;;;;2.77;100.00;101210.28;5005974;28;20054;-79
2022/01/18 01:10:14;;;;;;;42.58;40.47;;;;;;;2.48;100.00;101227.75;5007858;28;20054;-78
2022/01/18 01:12:42;;;;;;;43.35;41.00;;;;;;;2.78;100.00;101223.25;5004771;28;20057;-79
2022/01/18 01:15:13;;;;;;;43.08;41.08;;;;;;;3.16;100.00;101222.28;4997282;28;20116;-78
2022/01/18 01:17:46;;;;;;;44.38;42.17;;;;;;;2.16;100.00;101229.84;4994925;28;20053;-79
2022/01/18 01:34:19;;;;;;;45.65;43.35;;;;;;;0.62;100.00;101248.41;5000018;28;20050;-78
2022/01/18 01:37:12;;;;;;;46.97;44.72;;;;;;;0.90;100.00;101254.75;5002026;28;20536;-80
2022/01/18 01:42:43;;;;;;;43.83;41.67;;;;;;;0.56;100.00;101267.22;5005335;28;19940;-79
2022/01/18 01:45:15;;;;;;;46.22;44.03;;;;;;;0.47;100.00;101269.75;5005481;28;20058;-79
2022/01/18 01:47:46;;;;;;;48.60;46.00;;;;;;;0.85;100.00;101267.41;4996611;28;20054;-79
2022/01/18 01:50:18;;;;;;;44.30;42.20;;;;;;;1.02;100.00;101276.41;5001875;28;20056;-78
2022/01/18 01:52:45;;;;;;;46.05;43.85;;;;;;;0.80;100.00;101277.41;5000711;28;20057;-79
2022/01/18 01:55:12;;;;;;;47.35;44.90;;;;;;;0.61;100.00;101282.53;5003173;28;20116;-79
2022/01/18 01:57:39;;;;;;;47.45;44.95;;;;;;;0.63;100.00;101284.03;4996918;28;20050;-79
2022/01/18 02:00:08;;;;;;;45.50;43.13;;;;;;;0.59;100.00;101292.28;5001724;28;20076;-82
2022/01/18 02:02:36;;;;;;;48.17;45.88;;;;;;;0.94;100.00;101297.19;5010106;28;20104;-79
2022/01/18 02:05:03;;;;;;;47.58;45.08;;;;;;;0.51;100.00;101312.97;5003252;28;20058;-79
2022/01/18 02:07:30;;;;;;;48.75;46.28;;;;;;;0.53;100.00;101317.13;5004162;28;20057;-79
2022/01/18 02:09:57;;;;;;;46.78;44.28;;;;;;;0.57;100.00;101318.53;5007107;28;20477;-80
2022/01/18 02:12:25;;;;;;;44.17;41.88;;;;;;;1.08;100.00;101314.31;5002654;28;20111;-78
2022/01/18 02:14:56;;;;;;;44.70;42.60;;;;;;;1.70;100.00;101317.75;5001356;28;20545;-78
2022/01/18 02:22:58;;;;;;;46.85;44.50;;;;;;;0.91;100.00;101337.50;5007386;28;20108;-78
2022/01/18 02:25:25;;;;;;;41.00;39.10;;;;;;;1.27;100.00;101340.59;4998594;28;20052;-80
2022/01/18 02:27:52;;;;;;;45.90;43.60;;;;;;;0.62;100.00;101354.75;5003097;28;20461;-79
2022/01/18 02:30:19;;;;;;;44.50;42.40;;;;;;;0.96;100.00;101350.19;5002436;28;20058;-77
2022/01/18 02:32:45;;;;;;;45.33;42.97;;;;;;;1.52;100.00;101359.47;4999341;28;20049;-78
2022/01/18 02:35:14;;;;;;;43.85;41.50;;;;;;;1.76;100.00;101370.44;5003289;28;20380;-78
2022/01/18 02:37:40;;;;;;;44.92;42.75;;;;;;;0.83;100.00;101370.47;5002669;28;20054;-80
2022/01/18 02:40:08;;;;;;;45.45;43.35;;;;;;;1.73;100.00;101373.31;5001433;28;20050;-78
2022/01/18 02:42:44;;;;;;;45.80;43.70;;;;;;;0.97;100.00;101380.63;5006428;28;20523;-78
2022/01/18 02:45:10;;;;;;;44.97;42.88;;;;;;;0.52;100.00;101390.47;5005173;28;20434;-79
2022/01/18 02:47:37;;;;;;;47.67;45.45;;;;;;;0.44;100.00;101397.13;5013745;28;20625;-78
2022/01/18 02:50:05;;;;;;;44.38;42.28;;;;;;;1.01;100.00;101404.75;5006759;28;20119;-79
2022/01/18 02:52:33;;;;;;;46.30;44.08;;;;;;;0.35;100.00;101424.00;5006273;28;20504;-79
2022/01/18 02:54:59;;;;;;;49.88;47.33;;;;;;;0.36;100.00;101424.81;5001529;28;20061;-78
2022/01/18 02:57:26;;;;;;;48.70;46.13;;;;;;;0.20;100.00;101425.22;5005309;28;20058;-78
2022/01/18 03:00:07;;;;;;;45.22;42.92;;;;;;;0.84;100.00;101427.88;5009845;28;20049;-79
2022/01/18 03:05:36;;;;;;;49.50;47.00;;;;;;;0.05;100.00;101440.31;5016644;28;20061;-78
2022/01/18 03:08:05;;;;;;;46.40;43.95;;;;;;;-0.07;100.00;101436.84;5026159;28;20452;-78
2022/01/18 03:10:32;;;;;;;45.03;42.83;;;;;;;-0.13;100.00;101446.97;5026153;28;20456;-78
2022/01/18 03:12:58;;;;;;;51.35;48.83;;;;;;;-0.39;100.00;101448.94;5024160;28;20119;-78
2022/01/18 03:15:25;;;;;;;49.83;47.42;;;;;;;-0.30;100.00;101448.28;5027989;28;20045;-79
2022/01/18 03:17:52;;;;;;;45.88;43.75;;;;;;;-0.19;100.00;101455.25;5028229;28;20092;-79
2022/01/18 03:20:19;;;;;;;49.42;47.03;;;;;;;-0.12;100.00;101459.06;5030461;28;20103;-81
2022/01/18 03:22:49;;;;;;;53.13;50.50;;;;;;;-0.19;100.00;101461.31;5026100;28;20129;-79
2022/01/18 03:25:27;;;;;;;48.17;45.78;;;;;;;-0.04;100.00;101477.59;5030250;28;20056;-80
2022/01/18 03:28:07;;;;;;;48.22;45.92;;;;;;;0.02;100.00;101473.66;5018956;28;20049;-77
2022/01/18 03:30:35;;;;;;;51.25;48.90;;;;;;;0.00;100.00;101481.66;5023382;28;20448;-79
2022/01/18 03:33:03;;;;;;;52.13;49.63;;;;;;;-0.08;100.00;101486.63;5027904;28;20107;-78
2022/01/18 03:35:30;;;;;;;46.95;44.55;;;;;;;0.45;100.00;101492.91;5027719;28;20049;-77
2022/01/18 03:37:57;;;;;;;48.15;45.75;;;;;;;-0.07;100.00;101493.50;5026459;28;20135;-77
2022/01/18 03:40:25;;;;;;;52.03;49.63;;;;;;;0.04;100.00;101510.97;5032805;28;20133;-78
2022/01/18 03:42:54;;;;;;;52.80;50.20;;;;;;;0.21;100.00;101510.47;5027114;28;20049;-78
2022/01/18 03:45:25;;;;;;;47.72;45.42;;;;;;;0.52;100.00;101513.31;5027526;28;20536;-78
2022/01/18 03:47:54;;;;;;;46.75;44.45;;;;;;;0.36;100.00;101511.88;5018195;28;20056;-79
2022/01/18 03:50:21;;;;;;;51.10;48.50;;;;;;;0.91;100.00;101510.16;5027714;28;20049;-78
2022/01/18 03:52:48;;;;;;;52.15;49.78;;;;;;;0.56;100.00;101525.19;5026645;28;20041;-78
2022/01/18 03:55:17;;;;;;;46.55;44.35;;;;;;;0.94;100.00;101527.38;5033286;28;20131;-80
2022/01/18 03:57:46;;;;;;;47.50;45.10;;;;;;;0.54;100.00;101527.91;5024579;28;20107;-78
2022/01/18 04:00:16;;;;;;;52.95;50.45;;;;;;;0.50;100.00;101554.44;5015886;28;20499;-79
2022/01/18 04:02:42;;;;;;;49.28;46.88;;;;;;;0.47;100.00;101571.19;5018090;28;20053;-78
2022/01/18 04:05:10;;;;;;;45.25;43.10;;;;;;;0.12;100.00;101574.75;5026316;28;20053;-80
2022/01/18 04:07:37;;;;;;;48.88;46.53;;;;;;;0.09;100.00;101585.44;5024801;28;20053;-77
2022/01/18 04:10:05;;;;;;;45.17;42.97;;;;;;;0.00;100.00;101588.72;5037807;28;20054;-80
2022/01/18 04:12:32;;;;;;;43.92;41.72;;;;;;;0.01;100.00;101600.00;5024787;28;20120;-80
2022/01/18 04:15:00;;;;;;;49.30;46.80;;;;;;;0.22;100.00;101607.03;5026538;28;20421;-78
2022/01/18 04:17:49;;;;;;;48.10;45.70;;;;;;;0.22;100.00;101601.81;5025933;28;20140;-77
2022/01/18 04:25:57;;;;;;;49.50;46.78;;;;;;;-0.20;100.00;101623.34;5023369;28;20044;-78
2022/01/18 04:28:33;;;;;;;44.38;42.28;;;;;;;-0.05;100.00;101630.03;5026544;28;20053;-80
2022/01/18 04:31:02;;;;;;;44.35;42.15;;;;;;;0.37;100.00;101633.78;5024383;28;20049;-78
2022/01/18 04:33:29;;;;;;;45.13;42.97;;;;;;;-0.36;100.00;101631.47;5021057;28;20042;-80
2022/01/18 04:35:55;;;;;;;45.97;43.78;;;;;;;0.15;100.00;101649.41;5024510;28;20482;-81
2022/01/18 04:38:22;;;;;;;44.83;42.70;;;;;;;-0.50;100.00;101638.50;5029796;28;20532;-79
2022/01/18 04:40:49;;;;;;;45.50;43.30;;;;;;;-0.17;100.00;101638.78;5022388;28;20095;-81
2022/01/18 04:43:22;;;;;;;49.13;46.75;;;;;;;-0.37;100.00;101641.06;5026697;28;20132;-78
2022/01/18 04:48:36;;;;;;;47.55;45.05;;;;;;;0.07;100.00;101643.97;5021313;28;20064;-79
2022/01/18 04:51:07;;;;;;;48.28;45.08;;;;;;;0.77;100.00;101653.44;5024192;28;20557;-77
2022/01/18 04:53:35;;;;;;;50.05;47.70;;;;;;;-0.11;100.00;101667.06;5029014;28;20405;-79
2022/01/18 04:56:08;;;;;;;47.70;45.45;;;;;;;0.05;100.00;101667.56;5027292;28;20119;-79
2022/01/18 04:58:34;;;;;;;44.60;42.22;;;;;;;0.09;100.00;101679.47;5023969;28;20139;-78
2022/01/18 05:01:04;;;;;;;49.90;47.40;;;;;;;-0.29;100.00;101679.69;5022445;28;20133;-78
2022/01/18 05:03:31;;;;;;;46.60;44.30;;;;;;;-0.41;100.00;101694.44;5020818;28;20057;-77
2022/01/18 05:06:06;;;;;;;47.40;45.10;;;;;;;-0.58;100.00;101697.41;5023707;28;20527;-80
2022/01/18 05:08:33;;;;;;;44.17;42.05;;;;;;;-0.73;100.00;101700.19;5035451;28;20115;-79
2022/01/18 05:11:00;;;;;;;44.58;42.47;;;;;;;-0.85;100.00;101718.47;5027546;28;20393;-79
2022/01/18 05:13:50;;;;;;;44.53;42.33;;;;;;;-0.95;100.00;101729.53;5024829;28;20057;-78
2022/01/18 05:16:42;;;;;;;45.88;43.50;;;;;;;-1.23;100.00;101733.22;5025726;28;20437;-78
2022/01/18 05:19:15;;;;;;;44.45;42.20;;;;;;;-1.22;100.00;101741.88;5026070;28;20490;-78
2022/01/18 05:24:33;;;;;;;45.55;43.15;;;;;;;-1.07;100.00;101753.03;4987912;28;20270;-78
2022/01/18 05:27:01;;;;;;;46.95;44.65;;;;;;;-1.10;100.00;101753.25;5024093;28;20095;-79
2022/01/18 05:29:28;;;;;;;49.30;46.72;;;;;;;-1.35;100.00;101774.94;5023574;28;20469;-78
2022/01/18 05:31:55;;;;;;;50.17;47.60;;;;;;;-1.39;100.00;101782.13;5022238;28;20049;-78
2022/01/18 05:34:22;;;;;;;52.20;49.53;;;;;;;-1.47;100.00;101785.22;5022585;28;20376;-78
2022/01/18 05:36:51;;;;;;;52.50;49.88;;;;;;;-1.30;100.00;101796.28;5032592;28;20476;-79
2022/01/18 05:39:17;;;;;;;45.67;43.33;;;;;;;-1.34;100.00;101811.28;5024016;28;20114;-78
2022/01/18 05:41:45;;;;;;;64.47;60.85;;;;;;;-1.41;100.00;101807.44;5021080;28;20128;-79
2022/01/18 05:44:12;;;;;;;46.42;44.25;;;;;;;-1.13;100.00;101816.03;5024448;28;20053;-78
2022/01/18 05:46:38;;;;;;;45.78;43.47;;;;;;;-1.28;100.00;101807.47;5020305;28;20053;-81
2022/01/18 05:49:05;;;;;;;43.25;41.08;;;;;;;-1.28;100.00;101816.09;5025121;28;20045;-78
2022/01/18 05:51:34;;;;;;;44.35;42.35;;;;;;;-1.02;100.00;101819.59;5033202;28;20467;-78
2022/01/18 05:54:02;;;;;;;66.05;62.00;;;;;;;-0.57;100.00;101822.59;4975389;28;20068;-79
2022/01/18 05:56:29;;;;;;;66.10;61.83;;;;;;;-0.55;100.00;101831.13;5027475;28;20049;-81
2022/01/18 05:58:59;;;;;;;68.85;64.35;;;;;;;-0.25;100.00;101829.94;5026102;28;20041;-78
2022/01/18 06:01:31;;;;;;;70.85;66.15;;;;;;;-0.78;100.00;101832.72;5020569;28;20064;-78
2022/01/18 06:04:10;;;;;;;75.85;70.85;;;;;;;-0.98;100.00;101833.25;4995370;28;20045;-79
2022/01/18 06:06:53;;;;;;;70.30;65.57;;;;;;;-0.71;100.00;101823.53;5026743;28;20124;-79
2022/01/18 06:09:21;;;;;;;;;;;;;;;-0.84;100.00;101829.72;5017271;28;20434;-79
2022/01/18 06:11:48;;;;;;;68.38;64.05;;;;;;;-0.28;100.00;101835.38;5018614;28;20004;-79
2022/01/18 06:14:15;;;;;;;67.90;63.90;;;;;;;-0.12;100.00;101845.56;5018882;28;20132;-77
2022/01/18 06:16:41;;;;;;;66.35;62.35;;;;;;;-0.41;100.00;101838.03;5017894;28;20046;-78
2022/01/18 06:19:08;;;;;;;77.65;72.38;;;;;;;-0.34;100.00;101831.41;5022855;28;20050;-78
2022/01/18 06:21:36;;;;;;;73.72;68.75;;;;;;;0.74;100.00;101832.31;5021369;28;20049;-78
2022/01/18 06:24:03;;;;;;;69.20;64.72;;;;;;;1.75;100.00;101840.25;5017094;28;20053;-79
2022/01/18 06:26:31;;;;;;;71.47;66.55;;;;;;;0.74;100.00;101831.50;5018344;28;20474;-78
2022/01/18 06:29:00;;;;;;;76.47;71.13;;;;;;;1.05;100.00;101833.47;5019687;28;20333;-79
2022/01/18 06:31:27;;;;;;;70.15;65.63;;;;;;;0.94;100.00;101832.59;5020926;28;20038;-78
2022/01/18 06:33:53;;;;;;;72.65;67.85;;;;;;;0.59;100.00;101826.44;5028220;28;20072;-78
2022/01/18 06:36:20;;;;;;;71.22;66.60;;;;;;;0.55;100.00;101827.63;5018279;28;20042;-80
2022/01/18 06:38:47;;;;;;;64.72;60.53;;;;;;;1.83;100.00;101837.03;5022246;28;20057;-79
2022/01/18 06:41:14;;;;;;;71.57;66.97;;;;;;;1.43;100.00;101832.31;5030326;28;20053;-78
2022/01/18 06:43:42;;;;;;;70.22;65.63;;;;;;;2.96;100.00;101833.00;5020265;28;20143;-81
2022/01/18 06:46:11;;;;;;;72.50;67.78;;;;;;;3.71;100.00;101846.78;5024428;28;20129;-78
2022/01/18 06:48:38;;;;;;;81.70;76.28;;;;;;;2.94;100.00;101844.63;5031025;28;20049;-81
2022/01/18 06:51:05;;;;;;;75.18;70.00;;;;;;;2.04;100.00;101845.81;5025446;28;20172;-80
2022/01/18 06:53:35;;;;;;;77.15;71.85;;;;;;;3.09;100.00;101851.22;5019717;28;20053;-81
2022/01/18 06:56:02;;;;;;;78.40;73.10;;;;;;;2.00;100.00;101860.13;5021726;28;20072;-80
2022/01/18 06:58:30;;;;;;;78.25;72.63;;;;;;;1.71;100.00;101861.59;5025634;28;20054;-79
2022/01/18 07:00:58;;;;;;;68.53;64.22;;;;;;;1.43;100.00;101865.53;5027147;28;20413;-79
2022/01/18 07:03:25;;;;;;;78.25;73.25;;;;;;;2.01;100.00;101863.56;5026735;28;20050;-81
2022/01/18 07:05:51;;;;;;;75.10;69.90;;;;;;;1.56;100.00;101877.53;5022900;28;20124;-81
2022/01/18 07:08:18;;;;;;;73.85;68.95;;;;;;;2.39;100.00;101868.38;5044953;28;20045;-80
2022/01/18 07:10:45;;;;;;;77.63;72.32;;;;;;;1.86;100.00;101873.47;5034329;28;20049;-80
2022/01/18 07:13:14;;;;;;;79.15;73.55;;;;;;;1.97;100.00;101872.66;5029698;28;20053;-81
2022/01/18 07:15:40;;;;;;;77.70;72.40;;;;;;;1.93;100.00;101874.66;5031859;28;20417;-81
2022/01/18 07:18:10;;;;;;;81.82;76.43;;;;;;;2.31;100.00;101875.19;5028296;28;20049;-78
2022/01/18 07:20:38;;;;;;;83.95;78.18;;;;;;;2.73;100.00;101876.94;5033729;28;20046;-81
2022/01/18 07:23:07;;;;;;;86.75;80.75;;;;;;;2.68;100.00;101879.09;5026301;28;20511;-82
2022/01/18 07:25:34;;;;;;;79.15;73.82;;;;;;;2.16;100.00;101893.81;5034729;28;20460;-80
2022/01/18 07:28:01;;;;;;;77.88;72.75;;;;;;;2.55;100.00;101896.81;5034500;28;20465;-83
2022/01/18 07:30:27;;;;;;;77.60;72.40;;;;;;;2.65;100.00;101891.63;5022977;28;20379;-81
2022/01/18 07:32:54;;;;;;;85.43;79.57;;;;;;;3.50;100.00;101883.63;5035185;28;20057;-80
2022/01/18 07:35:22;;;;;;;84.78;78.90;;;;;;;3.07;100.00;101873.31;5024982;28;20080;-81
2022/01/18 07:37:49;;;;;;;80.25;74.40;;;;;;;3.62;100.00;101887.81;5039795;28;20050;-80
2022/01/18 07:40:16;;;;;;;78.35;73.05;;;;;;;3.76;100.00;101876.13;5026227;28;20046;-79
2022/01/18 07:42:43;;;;;;;79.88;74.35;;;;;;;3.81;100.00;101881.81;5028377;28;20046;-78
2022/01/18 07:45:10;;;;;;;78.43;72.60;;;;;;;3.87;100.00;101891.81;5042646;28;20446;-80
2022/01/18 07:47:37;;;;;;;83.28;77.47;;;;;;;3.19;100.00;101894.09;5032594;28;20460;-82
2022/01/18 07:50:04;;;;;;;81.97;76.35;;;;;;;4.09;100.00;101900.44;5033635;28;20057;-81
2022/01/18 07:52:35;;;;;;;85.68;79.68;;;;;;;4.35;100.00;101900.75;5028538;28;20540;-80
2022/01/18 07:55:03;;;;;;;84.10;77.80;;;;;;;4.25;100.00;101913.91;5027315;28;20073;-83
2022/01/18 07:57:29;;;;;;;83.93;78.00;;;;;;;4.44;100.00;101901.75;5025007;28;20057;-80
2022/01/18 07:59:56;;;;;;;81.38;75.57;;;;;;;4.26;100.00;101902.41;5029508;28;20057;-80
2022/01/18 08:02:23;;;;;;;85.78;79.57;;;;;;;4.17;100.00;101913.72;5033495;28;20122;-81
2022/01/18 08:04:50;;;;;;;82.22;76.43;;;;;;;4.51;100.00;101906.34;5039506;28;20053;-82
2022/01/18 08:07:18;;;;;;;82.90;77.20;;;;;;;4.69;95.82;101917.00;5034388;28;20244;-81
2022/01/18 08:09:46;;;;;;;80.65;75.18;;;;;;;4.09;100.00;101921.47;5035712;28;20041;-84
2022/01/18 08:12:13;;;;;;;85.95;79.55;;;;;;;4.17;100.00;101929.50;5036781;28;20065;-80
2022/01/18 08:14:45;;;;;;;83.47;77.50;;;;;;;4.68;100.00;101919.78;5033634;28;20057;-78
2022/01/18 08:17:11;;;;;;;83.88;77.93;;;;;;;4.61;100.00;101932.66;5032042;28;20064;-81
2022/01/18 08:19:38;;;;;;;77.22;72.13;;;;;;;4.85;99.06;101934.06;5032628;28;20037;-79
2022/01/18 08:22:05;;;;;;;73.90;68.90;;;;;;;5.32;100.00;101936.78;5033405;28;20049;-81
2022/01/18 08:24:32;;;;;;;82.53;75.18;;;;;;;4.93;100.00;101931.53;5025054;28;20053;-81
2022/01/18 08:27:00;;;;;;;71.18;66.63;;;;;;;5.03;100.00;101941.13;5029315;28;20507;-78
2022/01/18 08:29:27;;;;;;;75.32;70.47;;;;;;;5.12;100.00;101930.72;5017980;28;20050;-80
2022/01/18 08:31:54;;;;;;;78.75;73.18;;;;;;;4.88;100.00;101942.50;5033437;28;20072;-79
2022/01/18 08:34:21;;;;;;;76.85;71.18;;;;;;;5.38;100.00;101949.38;5028515;28;20053;-78
2022/01/18 08:36:48;;;;;;;79.38;73.80;;;;;;;5.55;100.00;101937.28;5029460;28;20049;-82
2022/01/18 08:39:15;;;;;;;77.55;72.07;;;;;;;5.30;100.00;101941.38;5037433;28;20049;-80
2022/01/18 08:41:42;;;;;;;81.20;75.45;;;;;;;5.61;100.00;101929.63;5034268;28;20481;-81
2022/01/18 08:44:10;;;;;;;78.20;72.40;;;;;;;5.65;85.69;101940.72;5031465;28;20045;-80
2022/01/18 08:46:37;;;;;;;78.20;72.72;;;;;;;4.47;79.61;101935.69;5037245;28;20056;-81
2022/01/18 08:49:05;;;;;;;81.63;76.00;;;;;;;5.46;94.26;101936.34;5032877;28;20038;-78
2022/01/18 08:51:32;;;;;;;76.18;70.88;;;;;;;5.73;92.41;101944.28;5027973;28;20119;-80
2022/01/18 08:53:59;;;;;;;78.70;73.00;;;;;;;6.15;86.42;101940.41;5026880;28;20054;-80
2022/01/18 08:56:27;;;;;;;77.63;72.47;;;;;;;5.32;90.38;101942.88;5024939;28;20061;-82
2022/01/18 08:58:53;;;;;;;83.80;77.63;;;;;;;5.64;89.87;101942.53;5026558;28;20046;-78
2022/01/18 09:01:21;;;;;;;81.00;75.30;;;;;;;5.42;84.88;101929.69;5024738;28;20057;-79
2022/01/18 09:03:49;;;;;;;80.43;74.82;;;;;;;5.30;91.99;101929.03;5043418;28;20469;-80
2022/01/18 09:06:17;;;;;;;76.97;71.57;;;;;;;5.33;86.45;101926.09;5031013;28;20054;-79
2022/01/18 09:08:45;;;;;;;79.30;73.78;;;;;;;5.53;100.00;101929.50;5033417;28;20401;-79
2022/01/18 09:11:12;;;;;;;79.60;73.65;;;;;;;5.08;81.40;101934.59;5041102;28;20457;-80
2022/01/18 09:13:40;;;;;;;81.72;75.82;;;;;;;5.02;83.00;101923.66;5035310;28;20068;-80
2022/01/18 09:16:09;;;;;;;80.95;75.25;;;;;;;4.56;82.37;101934.84;5030439;28;20046;-80
2022/01/18 09:18:38;;;;;;;74.60;69.28;;;;;;;5.13;100.00;101933.19;5035322;28;20049;-83
2022/01/18 09:21:05;;;;;;;77.00;71.80;;;;;;;5.12;91.39;101918.38;5031744;28;20045;-82
2022/01/18 09:23:32;;;;;;;78.35;73.25;;;;;;;5.73;100.00;101917.94;5031798;28;20049;-79
2022/01/18 09:25:59;;;;;;;77.80;72.30;;;;;;;5.67;93.57;101921.16;5030856;28;20099;-78
2022/01/18 09:28:26;;;;;;;80.30;74.30;;;;;;;5.84;76.27;101913.44;5031064;28;20062;-81
2022/01/18 09:30:53;;;;;;;83.40;77.22;;;;;;;5.59;97.87;101907.03;5031108;28;20107;-79
2022/01/18 09:33:20;;;;;;;83.03;77.13;;;;;;;6.03;82.67;101907.28;5030485;28;20064;-77
2022/01/18 09:35:48;;;;;;;81.07;75.38;;;;;;;5.36;95.45;101901.28;5031780;28;20049;-81
2022/01/18 09:38:15;;;;;;;84.43;78.43;;;;;;;5.67;89.94;101891.31;5029525;28;20449;-78
2022/01/18 09:40:44;;;;;;;86.50;80.35;;;;;;;5.91;91.09;101893.44;5030157;28;20448;-81
2022/01/18 09:43:13;;;;;;;78.55;72.95;;;;;;;6.50;84.97;101904.50;5029372;28;20065;-80
2022/01/18 09:45:42;;;;;;;69.32;64.93;;;;;;;6.23;79.60;101890.34;5030522;28;20486;-81
2022/01/18 09:48:10;;;;;;;75.22;70.43;;;;;;;5.16;67.50;101895.22;5029729;28;20111;-82
2022/01/18 09:50:38;;;;;;;75.65;70.45;;;;;;;5.17;73.94;101891.59;5028165;28;20107;-79
2022/01/18 09:53:09;;;;;;;76.28;70.70;;;;;;;5.29;85.41;101895.72;5030456;28;20056;-80
2022/01/18 09:55:36;;;;;;;74.10;69.22;;;;;;;5.66;100.00;101901.03;5030426;28;20057;-80
2022/01/18 09:58:06;;;;;;;80.50;74.78;;;;;;;5.68;92.62;101903.53;5024014;28;20776;-81
2022/01/18 10:00:34;;;;;;;77.15;71.75;;;;;;;5.27;93.58;101898.53;5023541;28;20124;-80
2022/01/18 10:03:00;;;;;;;76.63;71.20;;;;;;;5.26;96.00;101912.69;5031487;28;20058;-79
2022/01/18 10:05:29;;;;;;;81.18;75.60;;;;;;;5.37;97.82;101906.41;5027931;28;20057;-81
2022/01/18 10:07:57;;;;;;;75.72;70.63;;;;;;;4.93;96.98;101913.09;5034974;28;20048;-80
2022/01/18 10:10:38;;;;;;;71.40;66.85;;;;;;;5.23;97.87;101923.50;5029541;28;20477;-79
2022/01/18 10:13:06;;;;;;;78.85;73.30;;;;;;;4.80;98.67;101924.75;5020012;28;20041;-82
2022/01/18 10:15:33;;;;;;;78.57;72.72;;;;;;;4.90;100.00;101937.09;5026568;28;20057;-79
2022/01/18 10:18:07;;;;;;;77.57;71.72;;;;;;;4.98;98.90;101934.59;5028119;28;20037;-81
2022/01/18 10:23:29;;;;;;;93.53;85.93;;;;;;;5.04;99.18;101953.28;5026372;28;20064;-81
2022/01/18 10:25:58;;;;;;;85.78;79.13;;;;;;;4.87;92.18;101938.22;5025150;28;20107;-80
2022/01/18 10:28:29;;;;;;;83.50;77.13;;;;;;;5.05;97.35;101957.63;5030633;28;20073;-79
2022/01/18 10:30:57;;;;;;;80.25;74.65;;;;;;;5.16;100.00;101953.97;5033235;28;20048;-80
2022/01/18 10:33:30;;;;;;;73.85;69.05;;;;;;;4.67;81.96;101960.22;5026984;28;20045;-80
2022/01/18 10:36:07;;;;;;;70.20;64.97;;;;;;;5.30;93.34;101951.91;5025832;28;20410;-81
2022/01/18 10:38:34;;;;;;;76.57;71.10;;;;;;;5.23;78.52;101957.75;5024164;28;20045;-81
2022/01/18 10:41:24;;;;;;;79.25;73.55;;;;;;;4.97;77.80;101956.63;5023521;28;20046;-81
2022/01/18 10:44:03;;;;;;;72.95;67.90;;;;;;;4.84;70.45;101964.78;5021097;28;20060;-81
2022/01/18 10:46:35;;;;;;;82.28;76.20;;;;;;;5.10;75.04;101964.25;5032931;28;20060;-79
2022/01/18 10:49:01;;;;;;;79.97;74.57;;;;;;;5.41;89.54;101955.19;5022271;28;20046;-80
2022/01/18 10:51:29;;;;;;;79.85;74.25;;;;;;;5.15;71.80;101960.22;5025950;28;20053;-82
2022/01/18 10:53:58;;;;;;;73.90;68.82;;;;;;;5.29;71.01;101964.22;5026974;28;20049;-80
2022/01/18 10:56:26;;;;;;;77.43;72.13;;;;;;;5.48;80.51;101958.13;5023211;28;20060;-80
2022/01/18 10:58:55;;;;;;;86.93;80.90;;;;;;;5.33;96.23;101972.69;5030771;28;20068;-79
2022/01/18 11:01:23;;;;;;;81.18;75.07;;;;;;;4.59;68.43;101966.97;5025175;28;20057;-79
2022/01/18 11:04:11;;;;;;;80.97;75.35;;;;;;;5.30;78.60;101975.63;5028329;28;20132;-79
2022/01/18 11:06:39;;;;;;;82.50;76.80;;;;;;;5.32;93.50;101978.94;5027545;28;20053;-81
2022/01/18 11:09:12;;;;;;;80.50;74.80;;;;;;;5.24;83.14;101974.38;5026775;28;20425;-81
2022/01/18 11:11:46;;;;;;;76.55;70.97;;;;;;;4.95;82.37;101969.94;5017393;28;20132;-81
2022/01/18 11:14:17;;;;;;;75.13;70.13;;;;;;;5.01;88.03;101971.19;5021780;28;20053;-77
2022/01/18 11:16:44;;;;;;;77.07;71.68;;;;;;;5.26;100.00;101959.25;5025425;28;20061;-80
2022/01/18 11:19:29;;;;;;;70.10;65.75;;;;;;;5.32;100.00;101953.41;5019712;28;20490;-76
2022/01/18 11:21:58;;;;;;;78.03;72.63;;;;;;;5.04;96.31;101950.66;5028120;28;20045;-80
2022/01/18 11:24:25;;;;;;;86.32;80.07;;;;;;;4.76;98.23;101951.50;5031218;28;20046;-79
2022/01/18 11:26:54;;;;;;;85.30;79.07;;;;;;;5.27;89.55;101953.84;5019787;28;20049;-78
2022/01/18 11:29:21;;;;;;;83.93;77.82;;;;;;;5.43;81.19;101957.69;5026091;28;20457;-79
2022/01/18 11:31:49;;;;;;;83.63;77.82;;;;;;;4.71;74.93;101953.72;5027501;28;20128;-79
2022/01/18 11:34:28;;;;;;;85.35;79.15;;;;;;;4.67;73.31;101950.53;5025623;28;20444;-81
2022/01/18 11:37:00;;;;;;;84.55;78.65;;;;;;;5.31;86.70;101962.28;5022479;28;20144;-79
2022/01/18 11:39:32;;;;;;;79.80;74.20;;;;;;;5.62;85.64;101944.47;5025257;28;20557;-80
2022/01/18 11:42:11;;;;;;;88.78;82.13;;;;;;;5.44;84.94;101959.34;5024794;28;20462;-78
2022/01/18 11:44:39;;;;;;;90.25;83.45;;;;;;;5.56;90.21;101960.03;5027727;28;20061;-81
2022/01/18 11:47:08;;;;;;;76.90;71.70;;;;;;;5.48;89.51;101948.41;5029390;28;20053;-79
2022/01/18 11:49:36;;;;;;;75.38;70.32;;;;;;;5.40;100.00;101950.91;5024301;28;20211;-82
2022/01/18 11:52:06;;;;;;;77.63;72.30;;;;;;;5.27;81.44;101956.47;5023952;28;20049;-82
2022/01/18 11:54:41;;;;;;;81.53;75.70;;;;;;;5.48;90.48;101953.66;5022529;28;20053;-80
2022/01/18 11:57:36;;;;;;;77.80;71.97;;;;;;;4.91;87.63;101946.66;5023437;28;20162;-79
2022/01/18 12:00:25;;;;;;;83.80;77.72;;;;;;;4.46;81.08;101949.81;5017611;28;20449;-80